createdAt,value
2022-12-09T00:00:14.792Z,8.279
2022-12-09T00:01:14.192Z,8.284
2022-12-09T00:02:13.043Z,8.274
2022-12-09T00:03:13.248Z,8.260
2022-12-09T00:04:13.205Z,8.274
2022-12-09T00:05:13.767Z,8.215
2022-12-09T00:06:14.505Z,8.25
2022-12-09T00:07:13.798Z,8.284
2022-12-09T00:08:13.655Z,8.300
2022-12-09T00:09:13.176Z,8.310
2022-12-09T00:10:13.865Z,8.326
2022-12-09T00:11:13.947Z,8.345
2022-12-09T00:12:14.258Z,8.350
2022-12-09T00:13:14.380Z,8.355
2022-12-09T00:14:14.457Z,8.378
2022-12-09T00:15:13.570Z,8.395
2022-12-09T00:16:18.753Z,8.399
2022-12-09T00:17:15.067Z,8.425
2022-12-09T00:18:18.941Z,8.430
2022-12-09T00:19:14.415Z,8.449
2022-12-09T00:20:15.152Z,8.475
2022-12-09T00:21:14.620Z,8.484
2022-12-09T00:22:18.498Z,8.510
2022-12-09T00:23:14.007Z,8.479
2022-12-09T00:24:13.346Z,8.494
2022-12-09T00:25:14.431Z,8.515
2022-12-09T00:26:13.522Z,8.505
2022-12-09T00:27:13.994Z,8.515
2022-12-09T00:28:13.876Z,8.524
2022-12-09T00:29:14.243Z,8.560
2022-12-09T00:30:15.008Z,8.569
2022-12-09T00:31:13.529Z,8.574
2022-12-09T00:32:13.784Z,8.579
2022-12-09T00:33:14.529Z,8.579
2022-12-09T00:34:13.427Z,8.560
2022-12-09T00:35:15.029Z,8.574
2022-12-09T00:36:14.003Z,8.576
2022-12-09T00:37:13.981Z,8.578
2022-12-09T00:38:14.024Z,8.595
2022-12-09T00:39:13.864Z,8.581
2022-12-09T00:40:13.912Z,8.578
2022-12-09T00:41:14.246Z,8.581
2022-12-09T00:42:14.004Z,8.545
2022-12-09T00:43:14.035Z,8.524
2022-12-09T00:44:13.607Z,8.538
2022-12-09T00:45:13.764Z,8.541
2022-12-09T00:46:12.899Z,8.545
2022-12-09T00:47:13.501Z,8.548
2022-12-09T00:48:13.980Z,8.545
2022-12-09T00:49:13.368Z,8.565
2022-12-09T00:50:13.880Z,8.545
2022-12-09T00:51:13.566Z,8.560
2022-12-09T00:52:14.079Z,8.553
2022-12-09T00:53:13.679Z,8.564
2022-12-09T00:54:14.371Z,8.555
2022-12-09T00:55:14.465Z,8.550
2022-12-09T00:56:14.544Z,8.510
2022-12-09T00:57:14.131Z,8.515
2022-12-09T00:58:13.955Z,8.520
2022-12-09T00:59:13.864Z,8.524
2022-12-09T01:00:14.779Z,8.545
2022-12-09T01:01:16.225Z,8.555
2022-12-09T01:02:14.312Z,8.524
2022-12-09T01:03:14.266Z,8.550
2022-12-09T01:04:14.116Z,8.520
2022-12-09T01:05:14.453Z,8.449
2022-12-09T01:06:13.909Z,8.444
2022-12-09T01:07:13.385Z,8.449
2022-12-09T01:08:13.740Z,8.465
2022-12-09T01:09:13.437Z,8.425
2022-12-09T01:10:14.046Z,8.413
2022-12-09T01:11:13.899Z,8.390
2022-12-09T01:12:13.717Z,8.409
2022-12-09T01:13:13.205Z,8.326
2022-12-09T01:14:13.308Z,8.338
2022-12-09T01:15:13.605Z,8.338
2022-12-09T01:16:13.998Z,8.380
2022-12-09T01:17:14.344Z,8.380
2022-12-09T01:18:14.179Z,8.368
2022-12-09T01:19:13.192Z,8.383
2022-12-09T01:20:13.773Z,8.414
2022-12-09T01:21:13.459Z,8.430
2022-12-09T01:22:13.826Z,8.435
2022-12-09T01:23:13.226Z,8.460
2022-12-09T01:24:13.152Z,8.465
2022-12-09T01:25:13.519Z,8.460
2022-12-09T01:26:13.953Z,8.479
2022-12-09T01:27:13.169Z,8.460
2022-12-09T01:28:13.095Z,8.460
2022-12-09T01:29:13.535Z,8.465
2022-12-09T01:30:13.997Z,8.444
2022-12-09T01:31:13.890Z,8.379
2022-12-09T01:32:13.747Z,8.338
2022-12-09T01:33:13.298Z,8.373
2022-12-09T01:34:12.964Z,8.345
2022-12-09T01:35:12.909Z,8.388
2022-12-09T01:36:13.975Z,8.361
2022-12-09T01:37:12.817Z,8.345
2022-12-09T01:38:13.867Z,8.310
2022-12-09T01:39:12.735Z,8.321
2022-12-09T01:40:14.866Z,8.321
2022-12-09T01:41:13.526Z,8.270
2022-12-09T01:42:13.240Z,8.279
2022-12-09T01:43:12.880Z,8.289
2022-12-09T01:44:13.722Z,8.274
2022-12-09T01:45:15.136Z,8.279
2022-12-09T01:46:13.398Z,8.270
2022-12-09T01:47:14.448Z,8.229
2022-12-09T01:48:13.106Z,8.244
2022-12-09T01:49:13.308Z,8.121
2022-12-09T01:50:13.228Z,8.126
2022-12-09T01:51:13.192Z,8.159
2022-12-09T01:52:13.613Z,8.194
2022-12-09T01:53:12.614Z,8.204
2022-12-09T01:54:12.631Z,8.225
2022-12-09T01:55:13.517Z,8.220
2022-12-09T01:56:13.884Z,8.255
2022-12-09T01:57:14.119Z,8.239
2022-12-09T01:58:13.590Z,8.184
2022-12-09T01:59:14.161Z,8.131
2022-12-09T02:00:14.494Z,8.109
2022-12-09T02:01:13.940Z,8.074
2022-12-09T02:02:13.790Z,8.121
2022-12-09T02:03:13.623Z,8.138
2022-12-09T02:04:13.692Z,8.142
2022-12-09T02:05:13.881Z,8.159
2022-12-09T02:06:13.458Z,8.138
2022-12-09T02:07:13.418Z,8.156
2022-12-09T02:08:13.660Z,8.170
2022-12-09T02:09:14.190Z,8.163
2022-12-09T02:10:14.342Z,8.157
2022-12-09T02:11:13.572Z,8.171
2022-12-09T02:12:13.211Z,8.173
2022-12-09T02:13:13.182Z,8.182
2022-12-09T02:14:13.549Z,8.189
2022-12-09T02:15:14.140Z,8.204
2022-12-09T02:16:12.867Z,8.199
2022-12-09T02:17:13.291Z,8.25
2022-12-09T02:18:14.065Z,8.25
2022-12-09T02:19:14.347Z,8.260
2022-12-09T02:20:13.725Z,8.255
2022-12-09T02:21:13.794Z,8.260
2022-12-09T02:22:12.681Z,8.244
2022-12-09T02:23:13.916Z,8.265
2022-12-09T02:24:13.161Z,8.289
2022-12-09T02:25:13.369Z,8.295
2022-12-09T02:26:13.275Z,8.300
2022-12-09T02:27:14.036Z,8.274
2022-12-09T02:28:13.980Z,8.265
2022-12-09T02:29:13.738Z,8.265
2022-12-09T02:30:14.232Z,8.244
2022-12-09T02:31:13.748Z,8.225
2022-12-09T02:32:13.813Z,8.199
2022-12-09T02:33:13.363Z,8.187
2022-12-09T02:34:13.629Z,8.149
2022-12-09T02:35:13.550Z,8.137
2022-12-09T02:36:14.213Z,8.131
2022-12-09T02:37:13.323Z,8.126
2022-12-09T02:38:13.792Z,8.104
2022-12-09T02:39:14.012Z,8.100
2022-12-09T02:40:14.308Z,8.104
2022-12-09T02:41:13.875Z,8.085
2022-12-09T02:42:13.482Z,8.079
2022-12-09T02:43:18.451Z,8.100
2022-12-09T02:44:13.672Z,8.095
2022-12-09T02:45:14.181Z,8.100
2022-12-09T02:46:13.303Z,8.064
2022-12-09T02:47:13.957Z,8.064
2022-12-09T02:48:13.090Z,8.074
2022-12-09T02:49:13.545Z,8.079
2022-12-09T02:50:14.696Z,8.085
2022-12-09T02:51:13.645Z,8.074
2022-12-09T02:52:13.275Z,8.060
2022-12-09T02:53:12.620Z,8.050
2022-12-09T02:54:14.178Z,7.994
2022-12-09T02:55:14.289Z,7.980
2022-12-09T02:56:13.190Z,7.934
2022-12-09T02:57:13.140Z,7.949
2022-12-09T02:58:13.070Z,7.945
2022-12-09T02:59:13.136Z,7.940
2022-12-09T03:00:14.427Z,7.908
2022-12-09T03:01:14.134Z,7.800
2022-12-09T03:02:13.288Z,7.789
2022-12-09T03:03:14.328Z,7.775
2022-12-09T03:04:13.448Z,7.784
2022-12-09T03:05:14.242Z,7.780
2022-12-09T03:06:13.814Z,7.699
2022-12-09T03:07:13.772Z,7.690
2022-12-09T03:08:13.417Z,7.693
2022-12-09T03:09:13.685Z,7.690
2022-12-09T03:10:14.009Z,7.715
2022-12-09T03:11:14.407Z,7.704
2022-12-09T03:12:13.288Z,7.699
2022-12-09T03:13:13.514Z,7.735
2022-12-09T03:14:12.576Z,7.719
2022-12-09T03:15:13.123Z,7.730
2022-12-09T03:16:13.212Z,7.739
2022-12-09T03:17:13.755Z,7.755
2022-12-09T03:18:13.000Z,7.769
2022-12-09T03:19:13.656Z,7.789
2022-12-09T03:20:14.386Z,7.795
2022-12-09T03:21:13.462Z,7.795
2022-12-09T03:22:13.138Z,7.804
2022-12-09T03:23:13.273Z,7.834
2022-12-09T03:24:13.538Z,7.821
2022-12-09T03:25:14.005Z,7.844
2022-12-09T03:26:13.181Z,7.833
2022-12-09T03:27:13.400Z,7.861
2022-12-09T03:28:13.168Z,7.849
2022-12-09T03:29:14.273Z,7.861
2022-12-09T03:30:14.141Z,7.868
2022-12-09T03:31:13.888Z,7.860
2022-12-09T03:32:13.336Z,7.868
2022-12-09T03:33:13.584Z,7.873
2022-12-09T03:34:12.748Z,7.889
2022-12-09T03:35:13.834Z,7.889
2022-12-09T03:36:12.695Z,7.879
2022-12-09T03:37:13.747Z,7.874
2022-12-09T03:38:13.508Z,7.889
2022-12-09T03:39:13.490Z,7.867
2022-12-09T03:40:14.305Z,7.867
2022-12-09T03:41:13.028Z,7.885
2022-12-09T03:42:13.552Z,7.855
2022-12-09T03:43:13.382Z,7.880
2022-12-09T03:44:13.239Z,7.889
2022-12-09T03:45:13.594Z,7.880
2022-12-09T03:46:13.103Z,7.894
2022-12-09T03:47:13.258Z,7.894
2022-12-09T03:48:13.261Z,7.909
2022-12-09T03:49:13.576Z,7.909
2022-12-09T03:50:13.380Z,7.905
2022-12-09T03:51:12.731Z,7.894
2022-12-09T03:52:13.467Z,7.905
2022-12-09T03:53:13.019Z,7.894
2022-12-09T03:54:13.439Z,7.920
2022-12-09T03:55:13.105Z,7.920
2022-12-09T03:56:12.983Z,7.909
2022-12-09T03:57:17.080Z,7.914
2022-12-09T03:58:14.391Z,7.909
2022-12-09T03:59:13.841Z,7.929
2022-12-09T04:00:14.851Z,7.929
2022-12-09T04:01:14.500Z,7.940
2022-12-09T04:02:13.634Z,7.945
2022-12-09T04:03:14.695Z,7.934
2022-12-09T04:04:14.007Z,7.945
2022-12-09T04:05:14.582Z,7.954
2022-12-09T04:06:14.203Z,7.934
2022-12-09T04:07:13.772Z,7.945
2022-12-09T04:08:13.054Z,7.960
2022-12-09T04:09:14.257Z,7.960
2022-12-09T04:10:13.603Z,7.949
2022-12-09T04:11:13.821Z,7.954
2022-12-09T04:12:13.479Z,7.940
2022-12-09T04:13:14.370Z,7.929
2022-12-09T04:14:15.748Z,7.945
2022-12-09T04:15:13.904Z,7.940
2022-12-09T04:16:13.414Z,7.940
2022-12-09T04:17:14.642Z,7.934
2022-12-09T04:18:14.661Z,7.949
2022-12-09T04:19:13.809Z,7.954
2022-12-09T04:20:14.036Z,7.954
2022-12-09T04:21:13.401Z,7.949
2022-12-09T04:22:14.010Z,7.954
2022-12-09T04:23:14.551Z,7.954
2022-12-09T04:24:14.936Z,7.974
2022-12-09T04:25:15.107Z,7.965
2022-12-09T04:26:14.887Z,7.969
2022-12-09T04:27:14.711Z,7.960
2022-12-09T04:28:14.036Z,7.969
2022-12-09T04:29:13.997Z,7.960
2022-12-09T04:30:14.047Z,7.974
2022-12-09T04:31:14.687Z,7.945
2022-12-09T04:32:14.300Z,7.949
2022-12-09T04:33:13.445Z,7.954
2022-12-09T04:34:13.948Z,7.949
2022-12-09T04:35:12.661Z,7.945
2022-12-09T04:36:13.176Z,7.940
2022-12-09T04:37:13.942Z,7.929
2022-12-09T04:38:14.193Z,7.925
2022-12-09T04:39:13.423Z,7.934
2022-12-09T04:40:18.207Z,7.934
2022-12-09T04:41:13.220Z,7.929
2022-12-09T04:42:13.274Z,7.909
2022-12-09T04:43:13.988Z,7.920
2022-12-09T04:44:13.041Z,7.909
2022-12-09T04:45:13.772Z,7.925
2022-12-09T04:46:12.805Z,7.909
2022-12-09T04:47:13.558Z,7.900
2022-12-09T04:48:13.179Z,7.885
2022-12-09T04:49:13.107Z,7.883
2022-12-09T04:50:13.960Z,7.873
2022-12-09T04:51:13.730Z,7.883
2022-12-09T04:52:13.717Z,7.860
2022-12-09T04:53:13.341Z,7.847
2022-12-09T04:54:13.072Z,7.844
2022-12-09T04:55:13.172Z,7.828
2022-12-09T04:56:12.820Z,7.821
2022-12-09T04:57:13.774Z,7.810
2022-12-09T04:58:13.693Z,7.828
2022-12-09T04:59:13.483Z,7.815
2022-12-09T05:00:15.188Z,7.823
2022-12-09T05:01:13.240Z,7.826
2022-12-09T05:02:13.565Z,7.788
2022-12-09T05:03:13.650Z,7.789
2022-12-09T05:04:13.991Z,7.801
2022-12-09T05:05:13.986Z,7.794
2022-12-09T05:06:17.848Z,7.795
2022-12-09T05:07:13.203Z,7.804
2022-12-09T05:08:13.955Z,7.800
2022-12-09T05:09:14.287Z,7.775
2022-12-09T05:10:14.395Z,7.769
2022-12-09T05:11:14.030Z,7.789
2022-12-09T05:12:13.611Z,7.800
2022-12-09T05:13:13.561Z,7.795
2022-12-09T05:14:13.754Z,7.789
2022-12-09T05:15:13.251Z,7.780
2022-12-09T05:16:16.991Z,7.775
2022-12-09T05:17:14.422Z,7.775
2022-12-09T05:18:19.641Z,7.755
2022-12-09T05:19:13.954Z,7.755
2022-12-09T05:20:14.660Z,7.764
2022-12-09T05:21:13.135Z,7.75
2022-12-09T05:22:14.025Z,7.755
2022-12-09T05:23:13.762Z,7.755
2022-12-09T05:24:13.749Z,7.755
2022-12-09T05:25:14.466Z,7.760
2022-12-09T05:26:13.926Z,7.755
2022-12-09T05:27:13.175Z,7.755
2022-12-09T05:28:13.938Z,7.739
2022-12-09T05:29:17.912Z,7.735
2022-12-09T05:30:14.840Z,7.744
2022-12-09T05:31:13.836Z,7.735
2022-12-09T05:32:13.217Z,7.744
2022-12-09T05:33:14.564Z,7.744
2022-12-09T05:34:13.066Z,7.730
2022-12-09T05:35:13.838Z,7.655
2022-12-09T05:36:13.169Z,7.620
2022-12-09T05:37:14.039Z,7.605
2022-12-09T05:38:14.053Z,7.599
2022-12-09T05:39:12.948Z,7.594
2022-12-09T05:40:14.161Z,7.590
2022-12-09T05:41:14.743Z,7.574
2022-12-09T05:42:13.339Z,7.565
2022-12-09T05:43:13.894Z,7.534
2022-12-09T05:44:12.996Z,7.534
2022-12-09T05:45:13.149Z,7.530
2022-12-09T05:46:13.175Z,7.530
2022-12-09T05:47:14.175Z,7.510
2022-12-09T05:48:13.346Z,7.519
2022-12-09T05:49:12.839Z,7.519
2022-12-09T05:50:13.952Z,7.505
2022-12-09T05:51:13.138Z,7.489
2022-12-09T05:52:13.921Z,7.505
2022-12-09T05:53:13.455Z,7.480
2022-12-09T05:54:13.649Z,7.480
2022-12-09T05:55:14.252Z,7.485
2022-12-09T05:56:13.985Z,7.494
2022-12-09T05:57:13.758Z,7.465
2022-12-09T05:58:13.217Z,7.465
2022-12-09T05:59:13.237Z,7.474
2022-12-09T06:00:14.692Z,7.460
2022-12-09T06:01:13.234Z,7.440
2022-12-09T06:02:14.034Z,7.445
2022-12-09T06:03:14.450Z,7.445
2022-12-09T06:04:13.366Z,7.440
2022-12-09T06:05:14.019Z,7.429
2022-12-09T06:06:13.754Z,7.405
2022-12-09T06:07:14.311Z,7.394
2022-12-09T06:08:13.421Z,7.374
2022-12-09T06:09:14.185Z,7.355
2022-12-09T06:10:14.526Z,7.315
2022-12-09T06:11:12.967Z,7.310
2022-12-09T06:12:13.035Z,7.275
2022-12-09T06:13:12.831Z,7.25
2022-12-09T06:14:13.393Z,7.219
2022-12-09T06:15:18.735Z,7.165
2022-12-09T06:16:13.819Z,7.149
2022-12-09T06:17:14.338Z,7.114
2022-12-09T06:18:13.153Z,7.092
2022-12-09T06:19:13.420Z,7.087
2022-12-09T06:20:14.563Z,7.079
2022-12-09T06:21:14.085Z,7.083
2022-12-09T06:22:13.957Z,7.103
2022-12-09T06:23:14.271Z,7.099
2022-12-09T06:24:13.767Z,7.073
2022-12-09T06:25:14.651Z,7.065
2022-12-09T06:26:13.738Z,7.054
2022-12-09T06:27:13.492Z,7.059
2022-12-09T06:28:14.198Z,7.070
2022-12-09T06:29:13.980Z,7.054
2022-12-09T06:30:15.006Z,7.039
2022-12-09T06:31:13.318Z,7.019
2022-12-09T06:32:14.408Z,6.965
2022-12-09T06:33:37.284Z,6.989
2022-12-09T06:34:13.827Z,6.985
2022-12-09T06:35:14.287Z,6.989
2022-12-09T06:36:13.797Z,6.949
2022-12-09T06:37:13.273Z,6.920
2022-12-09T06:38:14.747Z,6.934
2022-12-09T06:39:13.709Z,6.940
2022-12-09T06:40:14.001Z,6.934
2022-12-09T06:41:13.673Z,6.934
2022-12-09T06:42:13.181Z,6.945
2022-12-09T06:43:13.382Z,6.949
2022-12-09T06:44:20.019Z,6.929
2022-12-09T06:45:14.515Z,6.945
2022-12-09T06:46:14.032Z,6.934
2022-12-09T06:47:13.464Z,6.920
2022-12-09T06:48:13.195Z,6.905
2022-12-09T06:49:14.377Z,6.905
2022-12-09T06:50:13.920Z,6.874
2022-12-09T06:51:13.053Z,6.879
2022-12-09T06:52:13.564Z,6.874
2022-12-09T06:53:13.718Z,6.849
2022-12-09T06:54:14.116Z,6.861
2022-12-09T06:55:14.643Z,6.861
2022-12-09T06:56:14.312Z,6.844
2022-12-09T06:57:14.453Z,6.849
2022-12-09T06:58:14.545Z,6.843
2022-12-09T06:59:15.011Z,6.868
2022-12-09T07:00:15.370Z,6.827
2022-12-09T07:01:14.773Z,6.855
2022-12-09T07:02:14.634Z,6.844
2022-12-09T07:03:14.799Z,6.855
2022-12-09T07:04:13.980Z,6.844
2022-12-09T07:05:14.334Z,6.849
2022-12-09T07:06:13.612Z,6.861
2022-12-09T07:07:13.602Z,6.844
2022-12-09T07:08:13.499Z,6.833
2022-12-09T07:09:13.967Z,6.810
2022-12-09T07:10:14.602Z,6.815
2022-12-09T07:11:13.981Z,6.815
2022-12-09T07:12:13.951Z,6.810
2022-12-09T07:13:13.947Z,6.789
2022-12-09T07:14:14.155Z,6.784
2022-12-09T07:15:15.166Z,6.760
2022-12-09T07:16:14.350Z,6.784
2022-12-09T07:17:14.732Z,6.775
2022-12-09T07:18:13.863Z,6.764
2022-12-09T07:19:14.900Z,6.769
2022-12-09T07:20:14.853Z,6.784
2022-12-09T07:21:13.411Z,6.775
2022-12-09T07:22:13.367Z,6.764
2022-12-09T07:23:13.724Z,6.775
2022-12-09T07:24:14.028Z,6.764
2022-12-09T07:25:13.983Z,6.75
2022-12-09T07:26:14.458Z,6.744
2022-12-09T07:27:19.271Z,6.75
2022-12-09T07:28:14.035Z,6.739
2022-12-09T07:29:13.541Z,6.755
2022-12-09T07:30:14.261Z,6.764
2022-12-09T07:31:13.786Z,6.764
2022-12-09T07:32:14.659Z,6.764
2022-12-09T07:33:13.279Z,6.795
2022-12-09T07:34:13.662Z,6.784
2022-12-09T07:35:15.646Z,6.800
2022-12-09T07:36:19.170Z,6.821
2022-12-09T07:37:18.834Z,6.839
2022-12-09T07:38:13.410Z,6.833
2022-12-09T07:39:14.732Z,6.844
2022-12-09T07:40:14.407Z,6.835
2022-12-09T07:41:13.627Z,6.847
2022-12-09T07:42:13.375Z,6.854
2022-12-09T07:43:13.335Z,6.880
2022-12-09T07:44:14.635Z,6.885
2022-12-09T07:45:22.101Z,6.894
2022-12-09T07:46:13.590Z,6.921
2022-12-09T07:47:14.146Z,6.956
2022-12-09T07:48:13.610Z,6.960
2022-12-09T07:49:21.869Z,7
2022-12-09T07:50:14.971Z,7.005
2022-12-09T07:51:14.139Z,7.030
2022-12-09T07:52:14.021Z,7.025
2022-12-09T07:53:14.890Z,7.050
2022-12-09T07:54:14.578Z,7.065
2022-12-09T07:55:15.521Z,7.099
2022-12-09T07:56:13.951Z,7.094
2022-12-09T07:57:14.323Z,7.131
2022-12-09T07:58:13.620Z,7.143
2022-12-09T07:59:13.790Z,7.178
2022-12-09T08:00:14.706Z,7.165
2022-12-09T08:01:28.361Z,7.199
2022-12-09T08:02:14.176Z,7.219
2022-12-09T08:03:14.016Z,7.244
2022-12-09T08:04:14.462Z,7.25
2022-12-09T08:05:15.181Z,7.25
2022-12-09T08:06:13.960Z,7.269
2022-12-09T08:07:14.149Z,7.322
2022-12-09T08:08:14.510Z,7.339
2022-12-09T08:09:13.990Z,7.355
2022-12-09T08:10:14.066Z,7.374
2022-12-09T08:11:14.782Z,7.383
2022-12-09T08:12:15.142Z,7.385
2022-12-09T08:13:14.265Z,7.389
2022-12-09T08:14:14.172Z,7.408
2022-12-09T08:15:15.073Z,7.429
2022-12-09T08:16:14.400Z,7.445
2022-12-09T08:17:14.196Z,7.460
2022-12-09T08:18:13.678Z,7.474
2022-12-09T08:19:14.596Z,7.480
2022-12-09T08:20:15.593Z,7.474
2022-12-09T08:21:14.165Z,7.5
2022-12-09T08:22:14.743Z,7.505
2022-12-09T08:23:14.322Z,7.505
2022-12-09T08:24:14.648Z,7.525
2022-12-09T08:25:15.125Z,7.525
2022-12-09T08:26:15.276Z,7.534
2022-12-09T08:27:14.068Z,7.550
2022-12-09T08:28:15.059Z,7.565
2022-12-09T08:29:14.316Z,7.570
2022-12-09T08:30:15.072Z,7.579
2022-12-09T08:31:14.558Z,7.579
2022-12-09T08:32:14.378Z,7.590
2022-12-09T08:33:14.977Z,7.574
2022-12-09T08:34:14.436Z,7.570
2022-12-09T08:35:13.763Z,7.579
2022-12-09T08:36:14.519Z,7.599
2022-12-09T08:37:13.995Z,7.620
2022-12-09T08:38:14.333Z,7.631
2022-12-09T08:39:14.826Z,7.655
2022-12-09T08:40:14.779Z,7.677
2022-12-09T08:41:14.492Z,7.671
2022-12-09T08:42:14.729Z,7.710
2022-12-09T08:43:13.392Z,7.710
2022-12-09T08:44:13.672Z,7.719
2022-12-09T08:45:13.930Z,7.760
2022-12-09T08:46:14.205Z,7.789
2022-12-09T08:47:14.775Z,7.822
2022-12-09T08:48:14.298Z,7.855
2022-12-09T08:49:14.498Z,7.889
2022-12-09T08:50:15.015Z,7.934
2022-12-09T08:51:14.582Z,7.949
2022-12-09T08:52:14.355Z,7.985
2022-12-09T08:53:14.621Z,8
2022-12-09T08:54:14.600Z,8.024
2022-12-09T08:55:15.218Z,8.064
2022-12-09T08:56:15.477Z,8.085
2022-12-09T08:57:15.492Z,8.125
2022-12-09T08:58:14.222Z,8.104
2022-12-09T08:59:13.795Z,8.131
2022-12-09T09:00:15.157Z,8.149
2022-12-09T09:01:14.137Z,8.154
2022-12-09T09:02:14.653Z,8.171
2022-12-09T09:03:14.889Z,8.177
2022-12-09T09:04:14.632Z,8.192
2022-12-09T09:05:14.521Z,8.210
2022-12-09T09:06:14.808Z,8.189
2022-12-09T09:07:14.041Z,8.204
2022-12-09T09:08:13.512Z,8.210
2022-12-09T09:09:14.324Z,8.234
2022-12-09T09:10:14.827Z,8.25
2022-12-09T09:11:13.463Z,8.271
2022-12-09T09:12:14.111Z,8.272
2022-12-09T09:13:14.373Z,8.282
2022-12-09T09:14:14.109Z,8.305
2022-12-09T09:15:15.815Z,8.300
2022-12-09T09:16:14.933Z,8.305
2022-12-09T09:17:13.760Z,8.326
2022-12-09T09:18:14.228Z,8.345
2022-12-09T09:19:14.950Z,8.345
2022-12-09T09:20:14.880Z,8.342
2022-12-09T09:21:13.949Z,8.340
2022-12-09T09:22:14.435Z,8.355
2022-12-09T09:23:13.256Z,8.379
2022-12-09T09:24:14.213Z,8.383
2022-12-09T09:25:15.066Z,8.395
2022-12-09T09:26:14.465Z,8.404
2022-12-09T09:27:14.769Z,8.414
2022-12-09T09:28:13.682Z,8.435
2022-12-09T09:29:13.707Z,8.430
2022-12-09T09:30:14.534Z,8.454
2022-12-09T09:31:14.348Z,8.470
2022-12-09T09:32:13.357Z,8.470
2022-12-09T09:33:13.982Z,8.479
2022-12-09T09:34:14.229Z,8.484
2022-12-09T09:35:13.839Z,8.454
2022-12-09T09:36:14.941Z,8.484
2022-12-09T09:37:14.112Z,8.470
2022-12-09T09:38:14.042Z,8.479
2022-12-09T09:39:14.603Z,8.475
2022-12-09T09:40:14.400Z,8.489
2022-12-09T09:41:13.945Z,8.489
2022-12-09T09:42:14.176Z,8.489
2022-12-09T09:43:13.636Z,8.494
2022-12-09T09:44:14.076Z,8.505
2022-12-09T09:45:13.911Z,8.510
2022-12-09T09:46:13.910Z,8.524
2022-12-09T09:47:13.923Z,8.534
2022-12-09T09:48:14.078Z,8.550
2022-12-09T09:49:13.895Z,8.574
2022-12-09T09:50:13.404Z,8.604
2022-12-09T09:51:13.860Z,8.637
2022-12-09T09:52:14.555Z,8.666
2022-12-09T09:53:14.159Z,8.682
2022-12-09T09:54:13.398Z,8.720
2022-12-09T09:55:13.916Z,8.760
2022-12-09T09:56:13.762Z,8.765
2022-12-09T09:57:14.423Z,8.784
2022-12-09T09:58:13.708Z,8.805
2022-12-09T09:59:14.316Z,8.833
2022-12-09T10:00:20.151Z,8.862
2022-12-09T10:01:13.767Z,8.914
2022-12-09T10:02:13.855Z,8.920
2022-12-09T10:03:14.236Z,8.944
2022-12-09T10:04:14.067Z,8.954
2022-12-09T10:05:14.627Z,8.979
2022-12-09T10:06:13.776Z,9
2022-12-09T10:07:13.384Z,9.020
2022-12-09T10:08:13.536Z,9.039
2022-12-09T10:09:14.233Z,9.015
2022-12-09T10:10:21.526Z,9.029
2022-12-09T10:11:13.923Z,9.029
2022-12-09T10:12:13.516Z,9.029
2022-12-09T10:13:18.355Z,9.039
2022-12-09T10:14:14.066Z,9.045
2022-12-09T10:15:15.080Z,9.045
2022-12-09T10:16:14.336Z,9.020
2022-12-09T10:17:14.524Z,9.005
2022-12-09T10:18:14.606Z,9.024
2022-12-09T10:19:14.777Z,9.029
2022-12-09T10:20:29.566Z,9.029
2022-12-09T10:21:15.088Z,9.029
2022-12-09T10:22:13.787Z,9.104
2022-12-09T10:23:14.748Z,9.109
2022-12-09T10:24:14.979Z,9.085
2022-12-09T10:25:14.133Z,9.064
2022-12-09T10:26:14.356Z,9.103
2022-12-09T10:27:14.052Z,9.130
2022-12-09T10:28:13.710Z,9.131
2022-12-09T10:29:14.215Z,9.194
2022-12-09T10:30:15.628Z,9.204
2022-12-09T10:31:13.688Z,9.260
2022-12-09T10:32:13.057Z,9.229
2022-12-09T10:33:15.140Z,9.260
2022-12-09T10:34:14.395Z,9.25
2022-12-09T10:35:14.291Z,9.263
2022-12-09T10:36:14.250Z,9.270
2022-12-09T10:37:14.666Z,9.282
2022-12-09T10:38:14.072Z,9.259
2022-12-09T10:39:14.093Z,9.266
2022-12-09T10:40:15.122Z,9.274
2022-12-09T10:41:15.277Z,9.268
2022-12-09T10:42:14.716Z,9.293
2022-12-09T10:43:13.818Z,9.265
2022-12-09T10:44:14.199Z,9.289
2022-12-09T10:45:14.493Z,9.310
2022-12-09T10:46:19.225Z,9.274
2022-12-09T10:47:13.603Z,9.279
2022-12-09T10:48:13.951Z,9.279
2022-12-09T10:49:14.447Z,9.274
2022-12-09T10:50:15.392Z,9.25
2022-12-09T10:51:14.170Z,9.25
2022-12-09T10:52:14.085Z,9.244
2022-12-09T10:53:14.317Z,9.220
2022-12-09T10:54:17.899Z,9.255
2022-12-09T10:55:13.968Z,9.25
2022-12-09T10:56:14.453Z,9.239
2022-12-09T10:57:14.572Z,9.255
2022-12-09T10:58:14.381Z,9.260
2022-12-09T10:59:13.877Z,9.284
2022-12-09T11:00:15.449Z,9.289
2022-12-09T11:01:14.047Z,9.284
2022-12-09T11:02:15.046Z,9.289
2022-12-09T11:03:14.560Z,9.340
2022-12-09T11:04:13.529Z,9.383
2022-12-09T11:05:14.900Z,9.362
2022-12-09T11:06:14.337Z,9.368
2022-12-09T11:07:14.087Z,9.362
2022-12-09T11:08:13.728Z,9.404
2022-12-09T11:09:14.542Z,9.404
2022-12-09T11:10:15.283Z,9.444
2022-12-09T11:11:13.789Z,9.465
2022-12-09T11:12:14.208Z,9.5
2022-12-09T11:13:14.537Z,9.524
2022-12-09T11:14:13.973Z,9.515
2022-12-09T11:15:14.164Z,9.569
2022-12-09T11:16:15.084Z,9.585
2022-12-09T11:17:14.609Z,9.620
2022-12-09T11:18:14.327Z,9.670
2022-12-09T11:19:13.600Z,9.729
2022-12-09T11:20:14.392Z,9.699
2022-12-09T11:21:14.403Z,9.729
2022-12-09T11:23:14.635Z,9.649
2022-12-09T11:24:14.832Z,9.687
2022-12-09T11:25:14.068Z,9.694
2022-12-09T11:26:14.471Z,9.614
2022-12-09T11:27:14.244Z,9.590
2022-12-09T11:28:13.778Z,9.579
2022-12-09T11:29:14.092Z,9.564
2022-12-09T11:30:14.309Z,9.560
2022-12-09T11:31:29.158Z,9.574
2022-12-09T11:32:13.641Z,9.574
2022-12-09T11:33:13.382Z,9.569
2022-12-09T11:34:13.334Z,9.574
2022-12-09T11:35:13.673Z,9.579
2022-12-09T11:36:13.580Z,9.604
2022-12-09T11:37:14.281Z,9.609
2022-12-09T11:38:14.409Z,9.620
2022-12-09T11:39:14.449Z,9.631
2022-12-09T11:40:14.222Z,9.625
2022-12-09T11:41:13.958Z,9.631
2022-12-09T11:42:16.976Z,9.649
2022-12-09T11:43:14.174Z,9.659
2022-12-09T11:44:13.396Z,9.671
2022-12-09T11:45:14.880Z,9.631
2022-12-09T11:46:13.641Z,9.631
2022-12-09T11:47:14.628Z,9.631
2022-12-09T11:48:27.721Z,9.654
2022-12-09T11:49:12.474Z,9.682
2022-12-09T11:50:14.260Z,9.694
2022-12-09T11:51:14.090Z,9.760
2022-12-09T11:52:13.596Z,9.755
2022-12-09T11:53:14.305Z,9.765
2022-12-09T11:54:13.450Z,9.760
2022-12-09T11:55:14.159Z,9.720
2022-12-09T11:56:13.926Z,9.729
2022-12-09T11:57:15.251Z,9.725
2022-12-09T11:58:15.016Z,9.75
2022-12-09T11:59:14.780Z,9.744
2022-12-09T12:00:14.635Z,9.777
2022-12-09T12:01:13.422Z,9.755
2022-12-09T12:02:13.733Z,9.731
2022-12-09T12:03:14.006Z,9.739
2022-12-09T12:04:13.562Z,9.684
2022-12-09T12:05:16.888Z,9.708
2022-12-09T12:06:13.903Z,9.689
2022-12-09T12:07:13.044Z,9.659
2022-12-09T12:08:13.478Z,9.631
2022-12-09T12:09:13.779Z,9.659
2022-12-09T12:10:13.596Z,9.697
2022-12-09T12:11:15.704Z,9.734
2022-12-09T12:12:13.699Z,9.795
2022-12-09T12:13:13.897Z,9.871
2022-12-09T12:14:14.073Z,9.868
2022-12-09T12:15:13.736Z,9.867
2022-12-09T12:16:13.577Z,9.885
2022-12-09T12:17:15.085Z,9.868
2022-12-09T12:18:13.615Z,9.850
2022-12-09T12:19:13.790Z,9.866
2022-12-09T12:20:14.507Z,9.883
2022-12-09T12:21:13.308Z,9.838
2022-12-09T12:22:14.192Z,9.838
2022-12-09T12:23:14.427Z,9.805
2022-12-09T12:24:13.864Z,9.815
2022-12-09T12:25:18.983Z,9.805
2022-12-09T12:26:13.343Z,9.779
2022-12-09T12:27:14.374Z,9.760
2022-12-09T12:28:13.588Z,9.789
2022-12-09T12:29:14.188Z,9.755
2022-12-09T12:30:13.764Z,9.739
2022-12-09T12:31:18.864Z,9.760
2022-12-09T12:32:13.568Z,9.755
2022-12-09T12:34:00.425Z,9.755
2022-12-09T12:34:24.951Z,9.760
2022-12-09T12:35:14.340Z,9.729
2022-12-09T12:36:13.284Z,9.682
2022-12-09T12:37:13.865Z,9.631
2022-12-09T12:38:13.259Z,9.604
2022-12-09T12:39:13.939Z,9.600
2022-12-09T12:40:13.943Z,9.595
2022-12-09T12:41:14.025Z,9.604
2022-12-09T12:42:14.008Z,9.631
2022-12-09T12:43:27.510Z,9.614
2022-12-09T12:44:13.867Z,9.620
2022-12-09T12:45:13.494Z,9.649
2022-12-09T12:46:13.906Z,9.625
2022-12-09T12:47:13.837Z,9.637
2022-12-09T12:48:14.639Z,9.621
2022-12-09T12:49:14.054Z,9.569
2022-12-09T12:50:13.499Z,9.590
2022-12-09T12:51:14.194Z,9.560
2022-12-09T12:52:47.011Z,9.560
2022-12-09T12:53:13.334Z,9.579
2022-12-09T12:54:14.007Z,9.590